sensor_id;sensor_type;location;lat;lon;timestamp;P1;durP1;ratioP1;P2;durP2;ratioP2
43841;SDS011;29495;49.970;20.842;2023-09-08T03:35:17;8.40;;;5.35;;
43841;SDS011;29495;49.970;20.842;2023-09-08T03:37:44;9.40;;;5.88;;
43841;SDS011;29495;49.970;20.842;2023-09-08T03:40:10;6.65;;;5.28;;
43841;SDS011;29495;49.970;20.842;2023-09-08T03:42:36;6.57;;;5.18;;
43841;SDS011;29495;49.970;20.842;2023-09-08T03:45:02;7.55;;;5.68;;
43841;SDS011;29495;49.970;20.842;2023-09-08T03:47:29;7.75;;;5.60;;
43841;SDS011;29495;49.970;20.842;2023-09-08T03:49:55;9.50;;;6.03;;
43841;SDS011;29495;49.970;20.842;2023-09-08T03:52:21;6.72;;;5.10;;
43841;SDS011;29495;49.970;20.842;2023-09-08T03:54:48;8.85;;;5.93;;
43841;SDS011;29495;49.970;20.842;2023-09-08T03:57:14;6.57;;;5.13;;
43841;SDS011;29495;49.970;20.842;2023-09-08T03:59:41;8.32;;;5.70;;
43841;SDS011;29495;49.970;20.842;2023-09-08T04:02:06;9.52;;;6.20;;
43841;SDS011;29495;49.970;20.842;2023-09-08T04:04:33;9.68;;;5.95;;
43841;SDS011;29495;49.970;20.842;2023-09-08T04:06:59;9.25;;;6.43;;
43841;SDS011;29495;49.970;20.842;2023-09-08T04:09:25;7.68;;;5.72;;
43841;SDS011;29495;49.970;20.842;2023-09-08T04:11:53;6.30;;;5.20;;
43841;SDS011;29495;49.970;20.842;2023-09-08T04:14:21;7.32;;;5.35;;
43841;SDS011;29495;49.970;20.842;2023-09-08T04:16:48;7.90;;;6.40;;
43841;SDS011;29495;49.970;20.842;2023-09-08T04:19:14;7.97;;;5.63;;
43841;SDS011;29495;49.970;20.842;2023-09-08T04:21:41;8.25;;;6.05;;
43841;SDS011;29495;49.970;20.842;2023-09-08T04:24:07;6.82;;;5.72;;
43841;SDS011;29495;49.970;20.842;2023-09-08T04:26:36;8.80;;;6.25;;
43841;SDS011;29495;49.970;20.842;2023-09-08T04:47:26;7.18;;;5.68;;
43841;SDS011;29495;49.970;20.842;2023-09-08T04:49:56;7.80;;;6.05;;
43841;SDS011;29495;49.970;20.842;2023-09-08T04:52:24;8.00;;;6.32;;
43841;SDS011;29495;49.970;20.842;2023-09-08T04:54:50;8.50;;;5.57;;
43841;SDS011;29495;49.970;20.842;2023-09-08T04:57:16;8.48;;;6.40;;
43841;SDS011;29495;49.970;20.842;2023-09-08T04:59:44;9.40;;;5.93;;
43841;SDS011;29495;49.970;20.842;2023-09-08T05:02:10;7.00;;;5.03;;
43841;SDS011;29495;49.970;20.842;2023-09-08T05:04:36;8.02;;;5.07;;
43841;SDS011;29495;49.970;20.842;2023-09-08T05:07:03;8.02;;;5.93;;
43841;SDS011;29495;49.970;20.842;2023-09-08T05:09:29;9.75;;;6.32;;
43841;SDS011;29495;49.970;20.842;2023-09-08T05:11:55;6.30;;;5.28;;
43841;SDS011;29495;49.970;20.842;2023-09-08T05:14:22;7.57;;;5.63;;
43841;SDS011;29495;49.970;20.842;2023-09-08T05:16:50;9.43;;;6.18;;
43841;SDS011;29495;49.970;20.842;2023-09-08T05:19:22;7.68;;;5.90;;
43841;SDS011;29495;49.970;20.842;2023-09-08T05:21:50;6.97;;;5.07;;
43841;SDS011;29495;49.970;20.842;2023-09-08T05:24:17;7.35;;;5.70;;
43841;SDS011;29495;49.970;20.842;2023-09-08T05:26:43;7.07;;;5.13;;
43841;SDS011;29495;49.970;20.842;2023-09-08T05:29:09;8.45;;;5.60;;
43841;SDS011;29495;49.970;20.842;2023-09-08T05:31:35;5.90;;;5.05;;
43841;SDS011;29495;49.970;20.842;2023-09-08T05:34:01;5.85;;;5.10;;
43841;SDS011;29495;49.970;20.842;2023-09-08T05:36:29;6.13;;;4.78;;
43841;SDS011;29495;49.970;20.842;2023-09-08T05:38:56;6.30;;;5.20;;
43841;SDS011;29495;49.970;20.842;2023-09-08T05:41:23;7.03;;;4.70;;
43841;SDS011;29495;49.970;20.842;2023-09-08T05:43:49;7.00;;;4.63;;
43841;SDS011;29495;49.970;20.842;2023-09-08T05:46:16;5.55;;;4.75;;
43841;SDS011;29495;49.970;20.842;2023-09-08T06:10:08;5.47;;;4.10;;
43841;SDS011;29495;49.970;20.842;2023-09-08T06:12:40;5.97;;;4.57;;
43841;SDS011;29495;49.970;20.842;2023-09-08T06:15:06;6.28;;;4.43;;
43841;SDS011;29495;49.970;20.842;2023-09-08T06:17:33;4.60;;;3.78;;
43841;SDS011;29495;49.970;20.842;2023-09-08T06:20:03;6.05;;;4.30;;
43841;SDS011;29495;49.970;20.842;2023-09-08T06:22:31;4.97;;;4.25;;
43841;SDS011;29495;49.970;20.842;2023-09-08T06:25:05;5.43;;;4.05;;
43841;SDS011;29495;49.970;20.842;2023-09-08T06:27:44;4.38;;;3.97;;
43841;SDS011;29495;49.970;20.842;2023-09-08T06:30:11;5.53;;;4.20;;
43841;SDS011;29495;49.970;20.842;2023-09-08T06:32:42;6.43;;;4.50;;
43841;SDS011;29495;49.970;20.842;2023-09-08T06:35:08;4.60;;;3.90;;
43841;SDS011;29495;49.970;20.842;2023-09-08T06:37:35;5.45;;;4.55;;
43841;SDS011;29495;49.970;20.842;2023-09-08T06:40:02;6.15;;;4.05;;
43841;SDS011;29495;49.970;20.842;2023-09-08T06:45:06;6.13;;;4.43;;
43841;SDS011;29495;49.970;20.842;2023-09-08T06:47:33;5.35;;;3.70;;
43841;SDS011;29495;49.970;20.842;2023-09-08T06:49:59;5.97;;;4.55;;
43841;SDS011;29495;49.970;20.842;2023-09-08T06:52:25;5.90;;;4.95;;
43841;SDS011;29495;49.970;20.842;2023-09-08T06:54:51;5.20;;;4.20;;
43841;SDS011;29495;49.970;20.842;2023-09-08T06:57:18;4.90;;;4.13;;
43841;SDS011;29495;49.970;20.842;2023-09-08T06:59:45;6.07;;;4.57;;
43841;SDS011;29495;49.970;20.842;2023-09-08T07:02:11;5.50;;;4.38;;
43841;SDS011;29495;49.970;20.842;2023-09-08T07:04:38;6.72;;;5.00;;
43841;SDS011;29495;49.970;20.842;2023-09-08T07:07:04;7.82;;;5.38;;
43841;SDS011;29495;49.970;20.842;2023-09-08T07:09:34;5.18;;;4.68;;
43841;SDS011;29495;49.970;20.842;2023-09-08T07:12:04;5.55;;;4.75;;
43841;SDS011;29495;49.970;20.842;2023-09-08T08:18:57;7.05;;;5.18;;
43841;SDS011;29495;49.970;20.842;2023-09-08T08:25:16;7.03;;;5.03;;
43841;SDS011;29495;49.970;20.842;2023-09-08T08:32:04;6.25;;;4.53;;
43841;SDS011;29495;49.970;20.842;2023-09-08T11:08:17;4.95;;;3.42;;
43841;SDS011;29495;49.970;20.842;2023-09-08T13:18:01;5.70;;;3.22;;
43841;SDS011;29495;49.970;20.842;2023-09-08T13:20:28;3.25;;;2.95;;
43841;SDS011;29495;49.970;20.842;2023-09-08T13:22:54;2.58;;;2.38;;
43841;SDS011;29495;49.970;20.842;2023-09-08T13:25:21;4.22;;;2.65;;
43841;SDS011;29495;49.970;20.842;2023-09-08T13:27:47;4.75;;;3.50;;
43841;SDS011;29495;49.970;20.842;2023-09-08T15:25:41;3.45;;;2.70;;
43841;SDS011;29495;49.970;20.842;2023-09-08T15:28:37;3.72;;;2.90;;
43841;SDS011;29495;49.970;20.842;2023-09-08T15:31:33;3.85;;;2.30;;
43841;SDS011;29495;49.970;20.842;2023-09-08T15:42:45;2.80;;;2.47;;
43841;SDS011;29495;49.970;20.842;2023-09-08T15:45:37;3.65;;;2.15;;
43841;SDS011;29495;49.970;20.842;2023-09-08T15:48:03;3.40;;;2.55;;
43841;SDS011;29495;49.970;20.842;2023-09-08T15:50:29;4.68;;;3.90;;
43841;SDS011;29495;49.970;20.842;2023-09-08T15:52:56;6.75;;;4.03;;
43841;SDS011;29495;49.970;20.842;2023-09-08T15:55:22;8.70;;;4.40;;
43841;SDS011;29495;49.970;20.842;2023-09-08T15:57:51;6.82;;;3.75;;
43841;SDS011;29495;49.970;20.842;2023-09-08T16:00:17;7.72;;;4.60;;
43841;SDS011;29495;49.970;20.842;2023-09-08T16:02:43;6.82;;;4.10;;
43841;SDS011;29495;49.970;20.842;2023-09-08T16:05:09;8.02;;;4.82;;
43841;SDS011;29495;49.970;20.842;2023-09-08T16:07:37;7.72;;;4.97;;
43841;SDS011;29495;49.970;20.842;2023-09-08T16:10:06;7.85;;;4.45;;
43841;SDS011;29495;49.970;20.842;2023-09-08T16:12:33;7.65;;;4.40;;
43841;SDS011;29495;49.970;20.842;2023-09-08T16:15:00;7.53;;;4.40;;
43841;SDS011;29495;49.970;20.842;2023-09-08T16:17:26;9.52;;;4.60;;
43841;SDS011;29495;49.970;20.842;2023-09-08T16:19:52;6.63;;;4.15;;
43841;SDS011;29495;49.970;20.842;2023-09-08T16:41:19;7.32;;;4.25;;
43841;SDS011;29495;49.970;20.842;2023-09-08T16:43:46;8.45;;;4.38;;
43841;SDS011;29495;49.970;20.842;2023-09-08T16:46:16;7.00;;;4.15;;
43841;SDS011;29495;49.970;20.842;2023-09-08T16:48:42;4.63;;;3.83;;
43841;SDS011;29495;49.970;20.842;2023-09-08T16:51:08;6.32;;;3.85;;
43841;SDS011;29495;49.970;20.842;2023-09-08T16:53:35;6.57;;;4.63;;
43841;SDS011;29495;49.970;20.842;2023-09-08T16:56:01;9.95;;;5.50;;
43841;SDS011;29495;49.970;20.842;2023-09-08T16:58:34;11.18;;;6.80;;
43841;SDS011;29495;49.970;20.842;2023-09-08T17:01:01;12.05;;;6.18;;
43841;SDS011;29495;49.970;20.842;2023-09-08T17:03:30;10.05;;;6.03;;
43841;SDS011;29495;49.970;20.842;2023-09-08T17:05:56;14.07;;;7.28;;
43841;SDS011;29495;49.970;20.842;2023-09-08T17:08:22;17.58;;;8.50;;
43841;SDS011;29495;49.970;20.842;2023-09-08T17:10:48;16.23;;;8.45;;
43841;SDS011;29495;49.970;20.842;2023-09-08T17:13:18;17.10;;;8.32;;
43841;SDS011;29495;49.970;20.842;2023-09-08T17:15:49;15.20;;;8.13;;
43841;SDS011;29495;49.970;20.842;2023-09-08T17:18:17;14.25;;;7.60;;
43841;SDS011;29495;49.970;20.842;2023-09-08T17:20:45;14.13;;;7.78;;
43841;SDS011;29495;49.970;20.842;2023-09-08T17:23:11;12.02;;;7.47;;
43841;SDS011;29495;49.970;20.842;2023-09-08T17:25:37;11.18;;;6.55;;
43841;SDS011;29495;49.970;20.842;2023-09-08T17:28:03;11.40;;;5.90;;
43841;SDS011;29495;49.970;20.842;2023-09-08T17:30:35;8.52;;;5.43;;
43841;SDS011;29495;49.970;20.842;2023-09-08T17:33:13;7.63;;;4.72;;
43841;SDS011;29495;49.970;20.842;2023-09-08T17:35:47;9.20;;;5.55;;
43841;SDS011;29495;49.970;20.842;2023-09-08T17:51:11;5.50;;;3.97;;
43841;SDS011;29495;49.970;20.842;2023-09-08T17:57:06;5.93;;;4.45;;
43841;SDS011;29495;49.970;20.842;2023-09-08T17:59:32;5.93;;;4.10;;
43841;SDS011;29495;49.970;20.842;2023-09-08T18:02:02;8.15;;;4.97;;
43841;SDS011;29495;49.970;20.842;2023-09-08T18:04:33;8.35;;;4.75;;
43841;SDS011;29495;49.970;20.842;2023-09-08T18:40:29;6.50;;;4.28;;
43841;SDS011;29495;49.970;20.842;2023-09-08T18:43:40;6.60;;;4.47;;
43841;SDS011;29495;49.970;20.842;2023-09-08T18:54:45;5.28;;;4.13;;
43841;SDS011;29495;49.970;20.842;2023-09-08T20:39:37;12.63;;;8.15;;
43841;SDS011;29495;49.970;20.842;2023-09-08T20:43:03;11.73;;;7.45;;
43841;SDS011;29495;49.970;20.842;2023-09-08T21:09:34;14.30;;;8.77;;
43841;SDS011;29495;49.970;20.842;2023-09-08T21:13:04;12.00;;;8.10;;
43841;SDS011;29495;49.970;20.842;2023-09-08T21:15:30;13.57;;;8.13;;
43841;SDS011;29495;49.970;20.842;2023-09-08T21:17:56;11.50;;;7.88;;
43841;SDS011;29495;49.970;20.842;2023-09-08T21:20:22;11.35;;;7.40;;
43841;SDS011;29495;49.970;20.842;2023-09-08T21:22:48;13.43;;;8.27;;
43841;SDS011;29495;49.970;20.842;2023-09-08T21:25:14;11.75;;;7.57;;
43841;SDS011;29495;49.970;20.842;2023-09-08T21:34:52;12.55;;;8.40;;
43841;SDS011;29495;49.970;20.842;2023-09-08T21:41:52;13.43;;;7.28;;
43841;SDS011;29495;49.970;20.842;2023-09-08T21:45:07;10.80;;;7.65;;
43841;SDS011;29495;49.970;20.842;2023-09-08T21:50:40;9.93;;;6.15;;
43841;SDS011;29495;49.970;20.842;2023-09-08T21:53:20;8.68;;;5.95;;
43841;SDS011;29495;49.970;20.842;2023-09-08T21:55:49;7.40;;;5.47;;
43841;SDS011;29495;49.970;20.842;2023-09-08T21:58:23;6.88;;;5.63;;
43841;SDS011;29495;49.970;20.842;2023-09-08T22:04:48;8.35;;;5.60;;
43841;SDS011;29495;49.970;20.842;2023-09-08T22:07:17;6.47;;;5.25;;
43841;SDS011;29495;49.970;20.842;2023-09-08T22:09:46;7.82;;;5.45;;
43841;SDS011;29495;49.970;20.842;2023-09-08T22:13:08;7.43;;;5.60;;
43841;SDS011;29495;49.970;20.842;2023-09-08T22:15:37;6.88;;;5.45;;
43841;SDS011;29495;49.970;20.842;2023-09-08T22:18:06;7.82;;;5.85;;
43841;SDS011;29495;49.970;20.842;2023-09-08T22:20:32;7.55;;;6.07;;
43841;SDS011;29495;49.970;20.842;2023-09-08T22:23:04;9.13;;;6.25;;
43841;SDS011;29495;49.970;20.842;2023-09-08T22:25:36;7.35;;;5.75;;
43841;SDS011;29495;49.970;20.842;2023-09-08T22:28:18;7.82;;;5.45;;
43841;SDS011;29495;49.970;20.842;2023-09-08T22:35:20;8.48;;;6.40;;
43841;SDS011;29495;49.970;20.842;2023-09-08T22:38:01;6.50;;;5.35;;
43841;SDS011;29495;49.970;20.842;2023-09-08T22:40:50;7.30;;;5.57;;
43841;SDS011;29495;49.970;20.842;2023-09-08T22:43:19;6.55;;;5.00;;
43841;SDS011;29495;49.970;20.842;2023-09-08T22:45:45;7.97;;;5.65;;
43841;SDS011;29495;49.970;20.842;2023-09-08T22:48:14;6.25;;;4.97;;
43841;SDS011;29495;49.970;20.842;2023-09-08T22:50:44;6.45;;;4.97;;
43841;SDS011;29495;49.970;20.842;2023-09-08T22:53:37;6.93;;;5.55;;
43841;SDS011;29495;49.970;20.842;2023-09-08T22:56:03;6.47;;;4.97;;
43841;SDS011;29495;49.970;20.842;2023-09-08T22:58:39;8.77;;;5.18;;
43841;SDS011;29495;49.970;20.842;2023-09-08T23:01:09;6.78;;;4.97;;
43841;SDS011;29495;49.970;20.842;2023-09-08T23:03:35;6.95;;;5.57;;
43841;SDS011;29495;49.970;20.842;2023-09-08T23:06:10;6.47;;;5.25;;
43841;SDS011;29495;49.970;20.842;2023-09-08T23:08:50;5.30;;;4.57;;
43841;SDS011;29495;49.970;20.842;2023-09-08T23:11:23;6.00;;;5.00;;
43841;SDS011;29495;49.970;20.842;2023-09-08T23:13:53;7.45;;;5.35;;
43841;SDS011;29495;49.970;20.842;2023-09-08T23:19:31;9.43;;;5.68;;
43841;SDS011;29495;49.970;20.842;2023-09-08T23:22:10;8.32;;;5.70;;
43841;SDS011;29495;49.970;20.842;2023-09-08T23:24:37;7.05;;;5.30;;
43841;SDS011;29495;49.970;20.842;2023-09-08T23:27:03;7.45;;;5.70;;
43841;SDS011;29495;49.970;20.842;2023-09-08T23:30:05;7.10;;;5.28;;
43841;SDS011;29495;49.970;20.842;2023-09-08T23:32:39;8.02;;;6.05;;
